createdAt,value
2018-06-10T00:01:14.002Z,72.70
2018-06-10T00:03:42.819Z,72.60
2018-06-10T00:06:12.971Z,72.70
2018-06-10T00:08:42.170Z,72.80
2018-06-10T00:11:16.955Z,72.90
2018-06-10T00:13:46.968Z,72.90
2018-06-10T00:16:16.181Z,72.90
2018-06-10T00:18:49.503Z,73.10
2018-06-10T00:21:23.633Z,73.20
2018-06-10T00:23:58.579Z,73.40
2018-06-10T00:26:28.546Z,73.70
2018-06-10T00:29:03.131Z,73.70
2018-06-10T00:31:36.079Z,74.10
2018-06-10T00:34:05.731Z,74.30
2018-06-10T00:36:35.451Z,74.50
2018-06-10T00:39:06.756Z,74.60
2018-06-10T00:41:37.285Z,74.80
2018-06-10T00:44:11.040Z,75.00
2018-06-10T00:46:42.325Z,75.10
2018-06-10T00:49:12.402Z,75.40
2018-06-10T00:51:42.402Z,75.40
2018-06-10T00:54:14.316Z,75.80
2018-06-10T00:56:55.630Z,75.70
2018-06-10T00:59:27.256Z,75.70
2018-06-10T01:01:57.432Z,75.90
2018-06-10T01:04:27.641Z,75.90
2018-06-10T01:06:57.539Z,76.10
2018-06-10T01:09:27.638Z,76.20
2018-06-10T01:12:02.838Z,77.10
2018-06-10T01:14:32.137Z,77.10
2018-06-10T01:17:02.103Z,77.10
2018-06-10T01:19:31.756Z,77.00
2018-06-10T01:22:05.443Z,77.10
2018-06-10T01:24:35.519Z,76.80
2018-06-10T01:27:06.615Z,76.80
2018-06-10T01:29:36.937Z,77.00
2018-06-10T01:32:08.427Z,77.30
2018-06-10T01:34:38.650Z,77.50
2018-06-10T01:37:08.584Z,77.60
2018-06-10T01:39:42.652Z,77.30
2018-06-10T01:42:12.783Z,77.90
2018-06-10T01:44:41.931Z,77.90
2018-06-10T01:47:13.060Z,77.80
2018-06-10T01:49:43.592Z,77.90
2018-06-10T01:52:12.815Z,77.90
2018-06-10T01:54:43.687Z,78.30
2018-06-10T01:57:20.023Z,78.40
2018-06-10T01:59:49.444Z,78.90
2018-06-10T02:02:20.342Z,79.10
2018-06-10T02:04:50.336Z,79.10
2018-06-10T02:07:20.329Z,78.60
2018-06-10T02:09:50.679Z,78.90
2018-06-10T02:12:21.268Z,78.70
2018-06-10T02:14:50.769Z,78.80
2018-06-10T02:17:21.282Z,78.60
2018-06-10T02:19:52.701Z,78.40
2018-06-10T02:22:21.847Z,78.50
2018-06-10T02:24:51.666Z,78.50
2018-06-10T02:27:23.145Z,78.70
2018-06-10T02:29:54.164Z,78.50
2018-06-10T02:35:00.600Z,78.30
2018-06-10T02:37:30.049Z,78.70
2018-06-10T02:40:00.319Z,78.80
2018-06-10T02:42:30.604Z,78.80
2018-06-10T02:45:01.588Z,78.70
2018-06-10T02:47:33.086Z,79.00
2018-06-10T02:50:05.020Z,79.60
2018-06-10T02:52:36.492Z,79.70
2018-06-10T02:55:07.259Z,79.60
2018-06-10T02:57:39.354Z,79.60
2018-06-10T03:00:11.166Z,79.80
2018-06-10T03:02:46.155Z,79.60
2018-06-10T03:05:14.951Z,79.90
2018-06-10T03:07:45.614Z,79.70
2018-06-10T03:10:16.383Z,79.70
2018-06-10T03:12:46.776Z,79.30
2018-06-10T03:15:16.235Z,79.30
2018-06-10T03:17:52.347Z,79.60
2018-06-10T03:20:26.339Z,79.50
2018-06-10T03:22:56.179Z,78.90
2018-06-10T03:25:26.317Z,79.00
2018-06-10T03:27:56.414Z,79.00
2018-06-10T03:30:31.268Z,78.70
2018-06-10T03:33:03.260Z,78.60
2018-06-10T03:35:33.252Z,78.50
2018-06-10T03:38:05.129Z,78.30
2018-06-10T03:40:41.455Z,78.00
2018-06-10T03:43:18.436Z,77.00
2018-06-10T03:48:19.108Z,76.30
2018-06-10T03:50:49.873Z,75.90
2018-06-10T03:53:20.082Z,76.20
2018-06-10T03:55:49.437Z,76.00
2018-06-10T03:58:19.149Z,75.50
2018-06-10T04:00:49.213Z,74.90
2018-06-10T04:03:19.994Z,74.20
2018-06-10T04:05:50.121Z,74.10
2018-06-10T04:08:22.374Z,73.50
2018-06-10T04:10:58.092Z,73.80
2018-06-10T04:13:26.779Z,73.30
2018-06-10T04:15:56.478Z,73.10
2018-06-10T04:18:26.180Z,72.10
2018-06-10T04:20:57.234Z,72.00
2018-06-10T04:23:27.171Z,71.80
2018-06-10T04:25:57.257Z,71.40
2018-06-10T04:28:26.285Z,71.10
2018-06-10T04:31:00.336Z,71.10
2018-06-10T04:33:30.336Z,70.70
2018-06-10T04:36:00.438Z,70.70
2018-06-10T04:41:01.804Z,70.30
2018-06-10T04:46:11.390Z,70.40
2018-06-10T04:48:41.501Z,69.90
2018-06-10T04:51:11.441Z,69.50
2018-06-10T04:53:41.931Z,69.70
2018-06-10T04:56:17.995Z,70.40
2018-06-10T05:01:19.036Z,69.60
2018-06-10T05:03:48.967Z,69.50
2018-06-10T05:06:18.335Z,69.90
2018-06-10T05:08:48.410Z,69.70
2018-06-10T05:11:18.313Z,69.90
2018-06-10T05:13:52.389Z,69.40
2018-06-10T05:16:22.299Z,69.30
2018-06-10T05:18:51.806Z,69.50
2018-06-10T05:21:21.162Z,69.60
2018-06-10T05:23:50.545Z,69.40
2018-06-10T05:26:25.111Z,69.60
2018-06-10T05:28:56.296Z,69.50
2018-06-10T05:31:26.137Z,70.10
2018-06-10T05:33:57.533Z,69.70
2018-06-10T05:36:28.375Z,69.80
2018-06-10T05:38:58.097Z,69.30
2018-06-10T05:41:28.283Z,69.70
2018-06-10T05:43:58.992Z,69.90
2018-06-10T05:46:29.998Z,69.40
2018-06-10T05:49:06.029Z,69.00
2018-06-10T05:51:35.907Z,69.00
2018-06-10T05:54:06.009Z,68.90
2018-06-10T05:56:35.236Z,68.80
2018-06-10T05:59:05.921Z,68.60
2018-06-10T06:01:35.890Z,69.30
2018-06-10T06:04:05.991Z,67.90
2018-06-10T06:06:35.971Z,68.10
2018-06-10T06:09:08.373Z,67.90
2018-06-10T06:11:38.914Z,68.00
2018-06-10T06:14:08.907Z,68.10
2018-06-10T06:16:38.957Z,67.50
2018-06-10T06:19:09.835Z,67.60
2018-06-10T06:21:40.780Z,67.30
2018-06-10T06:24:12.522Z,67.70
2018-06-10T06:26:42.077Z,67.10
2018-06-10T06:29:14.334Z,66.50
2018-06-10T06:31:44.119Z,66.00
2018-06-10T06:34:14.133Z,65.70
2018-06-10T06:36:43.899Z,65.80
2018-06-10T06:39:14.735Z,65.00
2018-06-10T06:41:44.085Z,65.40
2018-06-10T06:44:13.942Z,65.30
2018-06-10T06:46:44.639Z,64.90
2018-06-10T06:49:16.412Z,64.40
2018-06-10T06:51:46.198Z,64.60
2018-06-10T06:54:17.768Z,64.80
2018-06-10T06:56:47.967Z,65.00
2018-06-10T06:59:18.192Z,65.00
2018-06-10T07:01:47.985Z,64.90
2018-06-10T07:04:17.959Z,65.20
2018-06-10T07:06:49.844Z,65.20
2018-06-10T07:09:22.181Z,65.20
2018-06-10T07:14:29.326Z,65.00
2018-06-10T07:16:59.130Z,63.30
2018-06-10T07:19:31.149Z,61.60
2018-06-10T07:22:04.700Z,61.90
2018-06-10T07:24:34.916Z,63.30
2018-06-10T07:27:03.954Z,62.50
2018-06-10T07:29:32.916Z,62.10
2018-06-10T07:32:03.242Z,61.90
2018-06-10T07:34:34.215Z,61.50
2018-06-10T07:37:05.202Z,61.50
2018-06-10T07:39:40.928Z,60.80
2018-06-10T07:42:10.841Z,60.10
2018-06-10T07:44:40.771Z,59.50
2018-06-10T07:47:10.837Z,59.40
2018-06-10T07:49:40.929Z,59.50
2018-06-10T07:52:11.854Z,59.30
2018-06-10T07:54:47.573Z,58.10
2018-06-10T07:57:17.535Z,57.10
2018-06-10T07:59:47.508Z,56.40
2018-06-10T08:02:17.112Z,56.90
2018-06-10T08:04:46.920Z,56.40
2018-06-10T08:07:17.548Z,56.30
2018-06-10T08:09:52.078Z,53.90
2018-06-10T08:12:21.864Z,52.60
2018-06-10T08:14:55.905Z,53.60
2018-06-10T08:17:26.621Z,53.30
2018-06-10T08:19:57.026Z,52.00
2018-06-10T08:22:34.124Z,52.70
2018-06-10T08:25:07.711Z,52.50
2018-06-10T08:27:38.100Z,52.00
2018-06-10T08:30:09.099Z,53.00
2018-06-10T08:34:07.793Z,53.00
2018-06-10T08:36:37.797Z,53.00
2018-06-10T08:39:09.915Z,52.90
2018-06-10T08:41:39.988Z,52.60
2018-06-10T08:44:16.063Z,52.00
2018-06-10T08:46:45.951Z,52.50
2018-06-10T08:49:15.658Z,52.00
2018-06-10T08:51:45.018Z,51.50
2018-06-10T08:54:15.370Z,52.20
2018-06-10T08:56:44.772Z,51.80
2018-06-10T08:59:14.803Z,51.80
2018-06-10T09:04:48.126Z,50.30
2018-06-10T09:07:26.703Z,49.40
2018-06-10T09:20:35.314Z,46.00
2018-06-10T09:26:00.638Z,46.60
2018-06-10T13:41:14.447Z,33.90
2018-06-10T13:43:44.512Z,34.40
2018-06-10T17:01:09.226Z,27.90
2018-06-10T17:03:40.047Z,27.20
2018-06-10T17:06:11.440Z,26.50
2018-06-10T17:08:42.231Z,26.50
2018-06-10T17:11:13.299Z,27.20
